| time (UTC) | temp F | wind direction | speed MPH | gust MPH | rain 1hr in | rain 24hr in | rain mn in | humidity % | barometer mb |
| 20260509065940 | 67 | 185 | 2.0 | 3.0 | 0.00 | 0.54 | 0.04 | 97 | 989.0 |
| 20260509065418 | 68 | 211 | 2.0 | 4.0 | 0.00 | 0.54 | 0.04 | 97 | 988.9 |
| 20260509063936 | 68 | 231 | 2.0 | 3.0 | 0.00 | 0.54 | 0.04 | 97 | 989.5 |
| 20260509062936 | 68 | 91 | 1.0 | 3.0 | 0.00 | 0.54 | 0.04 | 97 | 989.8 |
| 20260509061936 | 68 | 215 | 2.0 | 4.0 | 0.00 | 0.54 | 0.04 | 97 | 989.9 |
| 20260509060937 | 68 | 216 | 2.0 | 5.0 | 0.00 | 0.54 | 0.04 | 96 | 990.0 |
| 20260509055936 | 67 | 238 | 3.0 | 6.0 | 0.00 | 0.54 | 0.04 | 96 | 990.3 |
| 20260509054934 | 67 | 74 | 2.0 | 5.0 | 0.00 | 0.54 | 0.04 | 96 | 990.0 |
| 20260509053935 | 67 | 86 | 1.0 | 3.0 | 0.00 | 0.54 | 0.04 | 96 | 990.0 |
| 20260509052933 | 67 | 141 | 2.0 | 4.0 | 0.00 | 0.54 | 0.04 | 96 | 990.0 |
| 20260509051933 | 67 | 69 | 1.0 | 4.0 | 0.01 | 0.54 | 0.04 | 96 | 990.2 |
| 20260509050933 | 67 | 61 | 2.0 | 4.0 | 0.04 | 0.54 | 0.04 | 96 | 990.4 |
| 20260509045934 | 67 | 71 | 2.0 | 3.0 | 0.04 | 0.54 | 0.04 | 95 | 991.1 |
| 20260509044932 | 67 | 207 | 2.0 | 4.0 | 0.04 | 0.54 | 0.04 | 95 | 991.3 |
| 20260509043932 | 67 | 53 | 2.0 | 5.0 | 0.06 | 0.54 | 0.04 | 94 | 991.1 |
| 20260509042931 | 67 | 49 | 4.0 | 7.0 | 0.11 | 0.54 | 0.04 | 94 | 991.3 |
| 20260509040930 | 67 | 34 | 2.0 | 4.0 | 0.27 | 0.50 | 0.00 | 93 | 991.4 |
| 20260509035931 | 67 | 52 | 5.0 | 7.0 | 0.31 | 0.50 | 0.50 | 92 | 991.3 |
| 20260509034931 | 67 | 45 | 4.0 | 13.0 | 0.34 | 0.50 | 0.50 | 92 | 990.9 |
| 20260509033930 | 67 | 234 | 7.0 | 21.0 | 0.37 | 0.48 | 0.48 | 91 | 990.9 |
| 20260509031930 | 69 | 328 | 4.0 | 9.0 | 0.13 | 0.24 | 0.24 | 92 | 991.5 |
| 20260509030930 | 70 | 343 | 4.0 | 11.0 | 0.12 | 0.23 | 0.23 | 92 | 992.1 |
| 20260509025927 | 71 | 338 | 4.0 | 8.0 | 0.07 | 0.19 | 0.19 | 92 | 992.6 |
| 20260509024924 | 71 | 1 | 3.0 | 9.0 | 0.04 | 0.16 | 0.16 | 93 | 992.7 |
| 20260509023924 | 71 | 310 | 5.0 | 11.0 | 0.00 | 0.11 | 0.11 | 93 | 994.1 |
| 20260509022924 | 72 | 322 | 4.0 | 9.0 | 0.00 | 0.11 | 0.11 | 93 | 994.6 |
| 20260509021924 | 72 | 334 | 3.0 | 7.0 | 0.00 | 0.11 | 0.11 | 94 | 994.7 |
| 20260509020924 | 72 | 2 | 3.0 | 6.0 | 0.00 | 0.11 | 0.11 | 94 | 994.6 |
| 20260509015924 | 72 | 356 | 3.0 | 6.0 | 0.00 | 0.11 | 0.11 | 94 | 994.4 |
| 20260509014924 | 72 | 29 | 3.0 | 8.0 | 0.00 | 0.11 | 0.11 | 94 | 993.9 |
| 20260509013924 | 72 | 7 | 3.0 | 6.0 | 0.00 | 0.11 | 0.11 | 93 | 993.1 |
| 20260509013405 | 72 | 35 | 3.0 | 5.0 | 0.01 | 0.11 | 0.11 | 93 | 992.7 |
| 20260509011923 | 71 | 42 | 3.0 | 5.0 | 0.11 | 0.11 | 0.11 | 93 | 992.1 |
| 20260509010924 | 72 | 63 | 3.0 | 6.0 | 0.11 | 0.11 | 0.11 | 92 | 991.9 |
| 20260509010400 | 72 | 30 | 3.0 | 5.0 | 0.11 | 0.11 | 0.11 | 92 | 991.8 |
| 20260509004924 | 72 | 45 | 4.0 | 6.0 | 0.11 | 0.11 | 0.11 | 91 | 991.7 |
| 20260509003923 | 72 | 17 | 3.0 | 6.0 | 0.11 | 0.11 | 0.11 | 90 | 991.7 |
| 20260509002923 | 73 | 49 | 3.0 | 8.0 | 0.09 | 0.09 | 0.09 | 88 | 991.4 |
| 20260509001922 | 73 | 92 | 3.0 | 6.0 | 0.00 | 0.00 | 0.00 | 88 | 992.8 |
| 20260509000923 | 73 | 44 | 4.0 | 9.0 | 0.00 | 0.00 | 0.00 | 87 | 992.2 |
| 20260509000404 | 73 | 29 | 4.0 | 8.0 | 0.00 | 0.00 | 0.00 | 87 | 991.9 |
| 20260508234923 | 73 | 68 | 5.0 | 9.0 | 0.00 | 0.00 | 0.00 | 86 | 992.1 |
| 20260508233923 | 73 | 54 | 5.0 | 9.0 | 0.00 | 0.00 | 0.00 | 86 | 992.3 |
| 20260508232923 | 73 | 27 | 5.0 | 9.0 | 0.00 | 0.00 | 0.00 | 86 | 992.3 |
| 20260508231924 | 73 | 40 | 6.0 | 9.0 | 0.00 | 0.00 | 0.00 | 85 | 992.5 |
| 20260508231405 | 73 | 39 | 5.0 | 9.0 | 0.00 | 0.00 | 0.00 | 85 | 992.5 |
| 20260508225917 | 73 | 34 | 5.0 | 10.0 | 0.00 | 0.00 | 0.00 | 85 | 992.3 |
| 20260508224918 | 73 | 353 | 6.0 | 9.0 | 0.00 | 0.00 | 0.00 | 84 | 992.7 |
| 20260508224407 | 74 | 50 | 5.0 | 10.0 | 0.00 | 0.00 | 0.00 | 83 | 993.1 |
| 20260508222918 | 74 | 27 | 6.0 | 12.0 | 0.00 | 0.00 | 0.00 | 82 | 993.5 |
| 20260508222358 | 74 | 61 | 6.0 | 10.0 | 0.00 | 0.00 | 0.00 | 80 | 993.1 |
| 20260508221405 | 74 | 37 | 5.0 | 9.0 | 0.00 | 0.00 | 0.00 | 79 | 993.6 |
| 20260508215919 | 74 | 17 | 6.0 | 9.0 | 0.00 | 0.00 | 0.00 | 78 | 993.1 |
| 20260508213914 | 76 | 32 | 5.0 | 9.0 | 0.00 | 0.00 | 0.00 | 76 | 993.7 |
| 20260508212914 | 76 | 52 | 6.0 | 9.0 | 0.00 | 0.00 | 0.00 | 75 | 995.6 |
| 20260508211914 | 76 | 46 | 6.0 | 10.0 | 0.00 | 0.00 | 0.00 | 76 | 996.7 |
| 20260508210913 | 76 | 34 | 6.0 | 14.0 | 0.00 | 0.00 | 0.00 | 76 | 997.0 |
| 20260508205914 | 76 | 23 | 6.0 | 12.0 | 0.00 | 0.00 | 0.00 | 76 | 997.2 |
| 20260508205358 | 76 | 21 | 6.0 | 11.0 | 0.00 | 0.00 | 0.00 | 75 | 998.0 |
| 20260508204353 | 76 | 7 | 6.0 | 10.0 | 0.00 | 0.00 | 0.00 | 74 | 998.3 |
| 20260508202913 | 77 | 29 | 6.0 | 11.0 | 0.00 | 0.00 | 0.00 | 72 | 998.7 |
| 20260508201914 | 76 | 31 | 6.0 | 10.0 | 0.00 | 0.00 | 0.00 | 73 | 999.6 |
| 20260508201355 | 76 | 35 | 6.0 | 11.0 | 0.00 | 0.00 | 0.00 | 74 | 998.9 |
| 20260508195913 | 77 | 20 | 6.0 | 11.0 | 0.00 | 0.00 | 0.00 | 73 | 1001.3 |
| 20260508195344 | 77 | 46 | 5.0 | 9.0 | 0.00 | 0.00 | 0.00 | 73 | 1000.4 |
| 20260508193913 | 76 | 5 | 6.0 | 9.0 | 0.00 | 0.00 | 0.00 | 74 | 1000.9 |
| 20260508192912 | 76 | 41 | 5.0 | 9.0 | 0.00 | 0.00 | 0.00 | 73 | 1001.4 |
| 20260508191912 | 76 | 22 | 5.0 | 8.0 | 0.00 | 0.00 | 0.00 | 74 | 1000.3 |
| 20260508190909 | 76 | 33 | 5.0 | 11.0 | 0.00 | 0.00 | 0.00 | 74 | 998.1 |
| 20260508185909 | 75 | 31 | 5.0 | 10.0 | 0.00 | 0.00 | 0.00 | 74 | 998.4 |
| 20260508185353 | 75 | 42 | 5.0 | 10.0 | 0.00 | 0.00 | 0.00 | 73 | 999.4 |
| 20260508183909 | 75 | 359 | 6.0 | 9.0 | 0.00 | 0.00 | 0.00 | 74 | 999.9 |
| 20260508182909 | 75 | 32 | 6.0 | 9.0 | 0.00 | 0.00 | 0.00 | 75 | 1000.3 |
| 20260508181910 | 76 | 357 | 6.0 | 10.0 | 0.00 | 0.00 | 0.00 | 73 | 997.3 |
| 20260508180907 | 76 | 52 | 5.0 | 8.0 | 0.00 | 0.00 | 0.00 | 70 | 997.3 |
| 20260508174905 | 76 | 66 | 5.0 | 9.0 | 0.00 | 0.00 | 0.00 | 69 | 998.6 |
| 20260508174207 | 76 | 9 | 5.0 | 10.0 | 0.00 | 0.00 | 0.00 | 68 | 1001.9 |
| 20260508173354 | 76 | 29 | 4.0 | 9.0 | 0.00 | 0.00 | 0.00 | 70 | 1002.3 |
| 20260508171906 | 76 | 21 | 5.0 | 8.0 | 0.00 | 0.00 | 0.00 | 69 | 1002.0 |
| 20260508170905 | 76 | 62 | 4.0 | 9.0 | 0.00 | 0.00 | 0.00 | 71 | 999.7 |
| 20260508165905 | 76 | 52 | 5.0 | 8.0 | 0.00 | 0.00 | 0.00 | 69 | 1002.7 |
| 20260508164904 | 75 | 44 | 5.0 | 8.0 | 0.00 | 0.00 | 0.00 | 74 | 1002.7 |
| 20260508163903 | 74 | 28 | 5.0 | 9.0 | 0.00 | 0.00 | 0.00 | 76 | 1001.3 |
| 20260508162903 | 74 | 21 | 4.0 | 8.0 | 0.00 | 0.00 | 0.00 | 76 | 998.4 |
| 20260508162351 | 74 | 22 | 4.0 | 8.0 | 0.00 | 0.00 | 0.00 | 76 | 996.6 |
| 20260508161339 | 74 | 38 | 4.0 | 8.0 | 0.00 | 0.00 | 0.00 | 76 | 996.1 |
| 20260508160342 | 74 | 17 | 4.0 | 7.0 | 0.00 | 0.00 | 0.00 | 75 | 997.5 |
| 20260508154903 | 74 | 14 | 4.0 | 11.0 | 0.00 | 0.00 | 0.00 | 75 | 997.5 |
| 20260508153902 | 74 | 42 | 4.0 | 9.0 | 0.00 | 0.00 | 0.00 | 75 | 998.9 |
| 20260508152859 | 74 | 357 | 4.0 | 9.0 | 0.00 | 0.00 | 0.00 | 75 | 997.6 |
| 20260508151857 | 74 | 15 | 5.0 | 9.0 | 0.00 | 0.00 | 0.00 | 75 | 997.7 |
| 20260508150858 | 74 | 30 | 5.0 | 9.0 | 0.00 | 0.00 | 0.00 | 74 | 997.0 |
| 20260508145857 | 75 | 44 | 5.0 | 9.0 | 0.00 | 0.00 | 0.00 | 73 | 997.0 |
| 20260508144856 | 75 | 28 | 4.0 | 9.0 | 0.00 | 0.00 | 0.00 | 73 | 997.9 |
| 20260508143857 | 75 | 24 | 4.0 | 8.0 | 0.00 | 0.00 | 0.00 | 74 | 999.2 |
| 20260508142857 | 75 | 32 | 5.0 | 9.0 | 0.00 | 0.00 | 0.00 | 74 | 999.6 |
| 20260508141857 | 75 | 6 | 5.0 | 9.0 | 0.00 | 0.00 | 0.00 | 74 | 1002.2 |
| 20260508141332 | 74 | 52 | 5.0 | 8.0 | 0.00 | 0.00 | 0.00 | 76 | 999.5 |
| 20260508134856 | 74 | 28 | 5.0 | 9.0 | 0.00 | 0.00 | 0.00 | 78 | 996.3 |
| 20260508133856 | 74 | 53 | 5.0 | 10.0 | 0.00 | 0.00 | 0.00 | 77 | 996.5 |
| 20260508132856 | 73 | 41 | 5.0 | 9.0 | 0.00 | 0.00 | 0.00 | 76 | 995.8 |
| 20260508131856 | 74 | 31 | 5.0 | 9.0 | 0.00 | 0.00 | 0.00 | 75 | 995.5 |
| 20260508130856 | 74 | 8 | 5.0 | 9.0 | 0.00 | 0.00 | 0.00 | 75 | 997.0 |
| 20260508125856 | 74 | 5 | 6.0 | 10.0 | 0.00 | 0.00 | 0.00 | 74 | 996.8 |
| 20260508124855 | 73 | 31 | 5.0 | 10.0 | 0.00 | 0.00 | 0.00 | 75 | 996.0 |
| 20260508123852 | 73 | 23 | 5.0 | 10.0 | 0.00 | 0.00 | 0.00 | 77 | 995.0 |
| 20260508122905 | 73 | 41 | 6.0 | 12.0 | 0.00 | 0.00 | 0.00 | 84 | 995.0 |
| 20260508122327 | 73 | 46 | 6.0 | 12.0 | 0.00 | 0.00 | 0.00 | 89 | 995.0 |
| 20260508120853 | 74 | 29 | 4.0 | 10.0 | 0.00 | 0.00 | 0.00 | 90 | 994.9 |
| 20260508115853 | 75 | 0 | 2.0 | 5.0 | 0.00 | 0.00 | 0.00 | 91 | 995.5 |
| 20260508114850 | 75 | 319 | 2.0 | 6.0 | 0.00 | 0.00 | 0.00 | 91 | 995.0 |
| 20260508113847 | 75 | 352 | 2.0 | 6.0 | 0.00 | 0.00 | 0.00 | 91 | 995.1 |
| 20260508112846 | 75 | 359 | 2.0 | 4.0 | 0.00 | 0.00 | 0.00 | 91 | 994.7 |
| 20260508112328 | 75 | 22 | 2.0 | 4.0 | 0.00 | 0.00 | 0.00 | 91 | 994.7 |
| 20260508110846 | 75 | 4 | 2.0 | 4.0 | 0.00 | 0.00 | 0.00 | 91 | 994.5 |
| 20260508105845 | 75 | 355 | 2.0 | 5.0 | 0.00 | 0.00 | 0.00 | 91 | 993.6 |
| 20260508104846 | 75 | 349 | 2.0 | 4.0 | 0.00 | 0.00 | 0.00 | 91 | 992.5 |
| 20260508103846 | 76 | 15 | 2.0 | 4.0 | 0.00 | 0.00 | 0.00 | 91 | 993.0 |
| 20260508102846 | 76 | 11 | 2.0 | 5.0 | 0.00 | 0.00 | 0.00 | 91 | 992.8 |
| 20260508101842 | 76 | 6 | 1.0 | 4.0 | 0.00 | 0.00 | 0.00 | 90 | 992.7 |
| 20260508100842 | 76 | 9 | 2.0 | 5.0 | 0.00 | 0.00 | 0.00 | 91 | 993.6 |
| 20260508095843 | 76 | 34 | 1.0 | 3.0 | 0.00 | 0.00 | 0.00 | 90 | 993.5 |
| 20260508094855 | 76 | 14 | 1.0 | 2.0 | 0.00 | 0.00 | 0.00 | 90 | 993.1 |
| 20260508093843 | 76 | 268 | 1.0 | 4.0 | 0.00 | 0.00 | 0.00 | 90 | 992.6 |
| 20260508092843 | 76 | 286 | 1.0 | 3.0 | 0.00 | 0.00 | 0.00 | 90 | 993.0 |
| 20260508091843 | 76 | 277 | 2.0 | 4.0 | 0.00 | 0.00 | 0.00 | 90 | 993.3 |
| 20260508090843 | 76 | 306 | 1.0 | 5.0 | 0.00 | 0.00 | 0.00 | 89 | 993.0 |
| 20260508090326 | 77 | 230 | 2.0 | 6.0 | 0.00 | 0.00 | 0.00 | 89 | 992.9 |
| 20260508084840 | 77 | 306 | 2.0 | 6.0 | 0.00 | 0.00 | 0.00 | 89 | 993.5 |
| 20260508083841 | 77 | 0 | 1.0 | 3.0 | 0.00 | 0.00 | 0.00 | 89 | 993.1 |
| 20260508082840 | 77 | 319 | 2.0 | 4.0 | 0.00 | 0.00 | 0.00 | 89 | 993.3 |
| 20260508081839 | 77 | 341 | 2.0 | 4.0 | 0.00 | 0.00 | 0.00 | 89 | 992.7 |
| 20260508080840 | 77 | 0 | 2.0 | 4.0 | 0.00 | 0.00 | 0.00 | 89 | 993.0 |
| 20260508075839 | 77 | 259 | 1.0 | 3.0 | 0.00 | 0.00 | 0.00 | 89 | 993.4 |
| 20260508075314 | 77 | 212 | 1.0 | 5.0 | 0.00 | 0.00 | 0.00 | 89 | 993.3 |
| 20260508073839 | 77 | 215 | 1.0 | 5.0 | 0.00 | 0.00 | 0.00 | 89 | 993.4 |
| 20260508072839 | 77 | 205 | 1.0 | 3.0 | 0.00 | 0.00 | 0.00 | 88 | 993.1 |
| 20260508071839 | 77 | 304 | 2.0 | 5.0 | 0.00 | 0.00 | 0.00 | 88 | 993.8 |
| 20260508070839 | 77 | 262 | 1.0 | 6.0 | 0.00 | 0.00 | 0.00 | 88 | 993.6 |